sensor_id;sensor_type;location;lat;lon;timestamp;temperature;humidity
52731;DHT22;38624;53.242;6.974;2024-01-10T00:00:05;-7.00;99.90
52731;DHT22;38624;53.242;6.974;2024-01-10T00:02:30;-6.90;99.90
52731;DHT22;38624;53.242;6.974;2024-01-10T00:04:56;-6.80;99.90
52731;DHT22;38624;53.242;6.974;2024-01-10T00:07:21;-6.70;99.90
52731;DHT22;38624;53.242;6.974;2024-01-10T00:09:47;-6.60;99.90
52731;DHT22;38624;53.242;6.974;2024-01-10T00:12:13;-6.60;99.90
52731;DHT22;38624;53.242;6.974;2024-01-10T00:14:38;-6.60;99.90
52731;DHT22;38624;53.242;6.974;2024-01-10T00:17:04;-6.40;99.90
52731;DHT22;38624;53.242;6.974;2024-01-10T00:19:30;-6.40;99.90
52731;DHT22;38624;53.242;6.974;2024-01-10T00:21:55;-6.20;99.90
52731;DHT22;38624;53.242;6.974;2024-01-10T00:24:21;-4.10;99.90
52731;DHT22;38624;53.242;6.974;2024-01-10T00:26:46;-6.20;99.90
52731;DHT22;38624;53.242;6.974;2024-01-10T00:29:12;-6.30;99.90
52731;DHT22;38624;53.242;6.974;2024-01-10T00:31:37;-6.30;99.90
52731;DHT22;38624;53.242;6.974;2024-01-10T00:34:03;-6.30;99.90
52731;DHT22;38624;53.242;6.974;2024-01-10T00:36:28;-6.30;99.90
52731;DHT22;38624;53.242;6.974;2024-01-10T00:38:54;-6.20;99.90
52731;DHT22;38624;53.242;6.974;2024-01-10T00:41:20;-6.20;99.90
52731;DHT22;38624;53.242;6.974;2024-01-10T00:43:45;-6.20;99.90
52731;DHT22;38624;53.242;6.974;2024-01-10T00:46:11;-4.00;99.90
52731;DHT22;38624;53.242;6.974;2024-01-10T00:48:36;-6.00;99.90
52731;DHT22;38624;53.242;6.974;2024-01-10T00:51:02;-5.90;99.90
52731;DHT22;38624;53.242;6.974;2024-01-10T00:53:27;-5.60;99.90
52731;DHT22;38624;53.242;6.974;2024-01-10T00:55:53;-5.60;99.90
52731;DHT22;38624;53.242;6.974;2024-01-10T00:58:18;-4.50;99.90
52731;DHT22;38624;53.242;6.974;2024-01-10T01:00:44;-5.50;99.90
52731;DHT22;38624;53.242;6.974;2024-01-10T01:03:10;-5.30;99.90
52731;DHT22;38624;53.242;6.974;2024-01-10T01:05:35;-5.40;99.90
52731;DHT22;38624;53.242;6.974;2024-01-10T01:08:01;-5.30;99.90
52731;DHT22;38624;53.242;6.974;2024-01-10T01:10:26;-3.20;99.90
52731;DHT22;38624;53.242;6.974;2024-01-10T01:12:52;-5.30;99.90
52731;DHT22;38624;53.242;6.974;2024-01-10T01:15:17;-5.40;99.90
52731;DHT22;38624;53.242;6.974;2024-01-10T01:17:43;-5.50;99.90
52731;DHT22;38624;53.242;6.974;2024-01-10T01:20:09;-5.50;99.90
52731;DHT22;38624;53.242;6.974;2024-01-10T01:22:34;-5.50;99.90
52731;DHT22;38624;53.242;6.974;2024-01-10T01:25:00;-5.50;99.90
52731;DHT22;38624;53.242;6.974;2024-01-10T01:27:25;-5.50;99.90
52731;DHT22;38624;53.242;6.974;2024-01-10T01:29:51;-5.40;99.90
52731;DHT22;38624;53.242;6.974;2024-01-10T01:32:17;-5.40;99.90
52731;DHT22;38624;53.242;6.974;2024-01-10T01:34:42;-5.40;99.90
52731;DHT22;38624;53.242;6.974;2024-01-10T01:37:08;-5.40;99.90
52731;DHT22;38624;53.242;6.974;2024-01-10T01:39:33;-5.50;99.90
52731;DHT22;38624;53.242;6.974;2024-01-10T01:41:59;-5.50;99.90
52731;DHT22;38624;53.242;6.974;2024-01-10T01:44:24;-5.30;99.90
52731;DHT22;38624;53.242;6.974;2024-01-10T01:46:50;-6.70;99.90
52731;DHT22;38624;53.242;6.974;2024-01-10T01:49:16;-5.40;99.90
52731;DHT22;38624;53.242;6.974;2024-01-10T01:51:41;-5.30;99.90
52731;DHT22;38624;53.242;6.974;2024-01-10T01:54:07;-3.80;99.90
52731;DHT22;38624;53.242;6.974;2024-01-10T01:56:40;-5.30;99.90
52731;DHT22;38624;53.242;6.974;2024-01-10T01:59:06;-5.40;99.90
52731;DHT22;38624;53.242;6.974;2024-01-10T02:01:31;-5.30;99.90
52731;DHT22;38624;53.242;6.974;2024-01-10T02:03:57;-5.30;99.90
52731;DHT22;38624;53.242;6.974;2024-01-10T02:06:23;-5.40;99.90
52731;DHT22;38624;53.242;6.974;2024-01-10T02:08:49;-5.40;99.90
52731;DHT22;38624;53.242;6.974;2024-01-10T02:11:15;-5.30;99.90
52731;DHT22;38624;53.242;6.974;2024-01-10T02:13:40;-5.30;99.90
52731;DHT22;38624;53.242;6.974;2024-01-10T02:16:06;-5.40;99.90
52731;DHT22;38624;53.242;6.974;2024-01-10T02:18:32;-5.40;99.90
52731;DHT22;38624;53.242;6.974;2024-01-10T02:20:57;-5.40;99.90
52731;DHT22;38624;53.242;6.974;2024-01-10T02:23:23;-5.40;99.90
52731;DHT22;38624;53.242;6.974;2024-01-10T02:25:48;-5.40;99.90
52731;DHT22;38624;53.242;6.974;2024-01-10T02:28:14;-5.30;99.90
52731;DHT22;38624;53.242;6.974;2024-01-10T02:30:40;-5.20;99.90
52731;DHT22;38624;53.242;6.974;2024-01-10T02:33:05;-3.30;99.90
52731;DHT22;38624;53.242;6.974;2024-01-10T02:35:31;-5.20;99.90
52731;DHT22;38624;53.242;6.974;2024-01-10T02:37:58;-5.00;99.90
52731;DHT22;38624;53.242;6.974;2024-01-10T02:40:24;-5.10;99.90
52731;DHT22;38624;53.242;6.974;2024-01-10T02:42:49;-5.10;99.90
52731;DHT22;38624;53.242;6.974;2024-01-10T02:45:16;-5.20;99.90
52731;DHT22;38624;53.242;6.974;2024-01-10T02:47:42;-3.70;99.90
52731;DHT22;38624;53.242;6.974;2024-01-10T02:50:08;-3.40;99.90
52731;DHT22;38624;53.242;6.974;2024-01-10T02:52:33;-5.40;99.90
52731;DHT22;38624;53.242;6.974;2024-01-10T02:54:59;-5.30;99.90
52731;DHT22;38624;53.242;6.974;2024-01-10T02:57:24;-5.20;99.90
52731;DHT22;38624;53.242;6.974;2024-01-10T02:59:50;-5.20;99.90
52731;DHT22;38624;53.242;6.974;2024-01-10T03:02:15;-5.00;99.90
52731;DHT22;38624;53.242;6.974;2024-01-10T03:04:41;-5.00;99.90
52731;DHT22;38624;53.242;6.974;2024-01-10T03:07:07;-5.00;99.90
52731;DHT22;38624;53.242;6.974;2024-01-10T03:09:32;-5.00;99.90
52731;DHT22;38624;53.242;6.974;2024-01-10T03:11:58;-5.00;99.90
52731;DHT22;38624;53.242;6.974;2024-01-10T03:14:24;-5.00;99.90
52731;DHT22;38624;53.242;6.974;2024-01-10T03:16:49;-5.00;99.90
52731;DHT22;38624;53.242;6.974;2024-01-10T03:19:15;-5.00;99.90
52731;DHT22;38624;53.242;6.974;2024-01-10T03:21:40;-5.00;99.90
52731;DHT22;38624;53.242;6.974;2024-01-10T03:24:06;-5.00;99.90
52731;DHT22;38624;53.242;6.974;2024-01-10T03:26:31;-5.00;99.90
52731;DHT22;38624;53.242;6.974;2024-01-10T03:28:59;-5.00;99.90
52731;DHT22;38624;53.242;6.974;2024-01-10T03:31:26;-5.00;99.90
52731;DHT22;38624;53.242;6.974;2024-01-10T03:33:52;-5.10;99.90
52731;DHT22;38624;53.242;6.974;2024-01-10T03:36:17;-5.10;99.90
52731;DHT22;38624;53.242;6.974;2024-01-10T03:38:43;-5.10;99.90
52731;DHT22;38624;53.242;6.974;2024-01-10T03:41:13;-5.20;99.90
52731;DHT22;38624;53.242;6.974;2024-01-10T03:43:39;-5.20;99.90
52731;DHT22;38624;53.242;6.974;2024-01-10T03:46:04;-5.20;99.90
52731;DHT22;38624;53.242;6.974;2024-01-10T03:48:31;-5.30;99.90
52731;DHT22;38624;53.242;6.974;2024-01-10T03:50:56;-5.20;99.90
52731;DHT22;38624;53.242;6.974;2024-01-10T03:53:22;-5.10;99.90
52731;DHT22;38624;53.242;6.974;2024-01-10T03:55:47;-5.10;99.90
52731;DHT22;38624;53.242;6.974;2024-01-10T03:58:13;-5.00;99.90
52731;DHT22;38624;53.242;6.974;2024-01-10T04:00:39;-5.00;99.90
52731;DHT22;38624;53.242;6.974;2024-01-10T04:03:04;-5.10;99.90
52731;DHT22;38624;53.242;6.974;2024-01-10T04:05:30;-5.10;99.90
52731;DHT22;38624;53.242;6.974;2024-01-10T04:07:55;-5.30;99.90
52731;DHT22;38624;53.242;6.974;2024-01-10T04:10:22;-5.40;99.90
52731;DHT22;38624;53.242;6.974;2024-01-10T04:12:48;-5.50;99.90
52731;DHT22;38624;53.242;6.974;2024-01-10T04:15:14;-5.70;99.90
52731;DHT22;38624;53.242;6.974;2024-01-10T04:17:39;-5.80;99.90
52731;DHT22;38624;53.242;6.974;2024-01-10T04:20:05;-5.90;99.90
52731;DHT22;38624;53.242;6.974;2024-01-10T04:22:31;-5.80;99.90
52731;DHT22;38624;53.242;6.974;2024-01-10T04:24:58;-5.70;99.90
52731;DHT22;38624;53.242;6.974;2024-01-10T04:27:23;-5.70;99.90
52731;DHT22;38624;53.242;6.974;2024-01-10T04:29:49;-5.80;99.90
52731;DHT22;38624;53.242;6.974;2024-01-10T04:32:15;-5.90;99.90
52731;DHT22;38624;53.242;6.974;2024-01-10T04:34:40;-6.00;99.90
52731;DHT22;38624;53.242;6.974;2024-01-10T04:37:06;-5.90;99.90
52731;DHT22;38624;53.242;6.974;2024-01-10T04:39:33;-5.80;99.90
52731;DHT22;38624;53.242;6.974;2024-01-10T04:41:58;-5.60;99.90
52731;DHT22;38624;53.242;6.974;2024-01-10T04:44:24;-5.40;99.90
52731;DHT22;38624;53.242;6.974;2024-01-10T04:46:50;-5.50;99.90
52731;DHT22;38624;53.242;6.974;2024-01-10T04:49:15;-5.40;99.90
52731;DHT22;38624;53.242;6.974;2024-01-10T04:51:41;-5.40;99.90
52731;DHT22;38624;53.242;6.974;2024-01-10T04:54:06;-5.40;99.90
52731;DHT22;38624;53.242;6.974;2024-01-10T04:56:32;-4.10;99.90
52731;DHT22;38624;53.242;6.974;2024-01-10T04:58:57;-5.60;99.90
52731;DHT22;38624;53.242;6.974;2024-01-10T05:01:23;-3.30;99.90
52731;DHT22;38624;53.242;6.974;2024-01-10T05:03:49;-4.10;99.90
52731;DHT22;38624;53.242;6.974;2024-01-10T05:06:14;-5.30;99.90
52731;DHT22;38624;53.242;6.974;2024-01-10T05:08:40;-5.30;99.90
52731;DHT22;38624;53.242;6.974;2024-01-10T05:11:05;-5.30;99.90
52731;DHT22;38624;53.242;6.974;2024-01-10T05:13:31;-5.20;99.90
52731;DHT22;38624;53.242;6.974;2024-01-10T05:15:56;-5.20;99.90
52731;DHT22;38624;53.242;6.974;2024-01-10T05:18:22;-5.30;99.90
52731;DHT22;38624;53.242;6.974;2024-01-10T05:20:47;-5.20;99.90
52731;DHT22;38624;53.242;6.974;2024-01-10T05:23:13;-5.20;99.90
52731;DHT22;38624;53.242;6.974;2024-01-10T05:25:39;-3.00;99.90
52731;DHT22;38624;53.242;6.974;2024-01-10T05:28:05;-5.30;99.90
52731;DHT22;38624;53.242;6.974;2024-01-10T05:30:30;-5.20;99.90
52731;DHT22;38624;53.242;6.974;2024-01-10T05:32:57;-5.10;99.90
52731;DHT22;38624;53.242;6.974;2024-01-10T05:35:24;-5.20;99.90
52731;DHT22;38624;53.242;6.974;2024-01-10T05:37:51;-5.30;99.90
52731;DHT22;38624;53.242;6.974;2024-01-10T05:40:17;-5.30;99.90
52731;DHT22;38624;53.242;6.974;2024-01-10T05:42:44;-5.30;99.90
52731;DHT22;38624;53.242;6.974;2024-01-10T05:45:10;-5.30;99.90
52731;DHT22;38624;53.242;6.974;2024-01-10T05:47:36;-5.40;99.90
52731;DHT22;38624;53.242;6.974;2024-01-10T05:50:02;-3.30;99.90
52731;DHT22;38624;53.242;6.974;2024-01-10T05:52:31;-5.40;99.90
52731;DHT22;38624;53.242;6.974;2024-01-10T05:54:57;-5.50;99.90
52731;DHT22;38624;53.242;6.974;2024-01-10T05:57:23;-5.60;99.90
52731;DHT22;38624;53.242;6.974;2024-01-10T05:59:48;-5.70;99.90
52731;DHT22;38624;53.242;6.974;2024-01-10T06:02:14;-5.80;99.90
52731;DHT22;38624;53.242;6.974;2024-01-10T06:04:41;-5.90;99.90
52731;DHT22;38624;53.242;6.974;2024-01-10T06:07:07;-5.40;99.90
52731;DHT22;38624;53.242;6.974;2024-01-10T06:09:33;-5.90;99.90
52731;DHT22;38624;53.242;6.974;2024-01-10T06:11:58;-5.80;99.90
52731;DHT22;38624;53.242;6.974;2024-01-10T06:14:24;-5.90;99.90
52731;DHT22;38624;53.242;6.974;2024-01-10T06:16:49;-5.90;99.90
52731;DHT22;38624;53.242;6.974;2024-01-10T06:19:15;-6.00;99.90
52731;DHT22;38624;53.242;6.974;2024-01-10T06:21:41;-6.10;99.90
52731;DHT22;38624;53.242;6.974;2024-01-10T06:24:07;-6.10;99.90
52731;DHT22;38624;53.242;6.974;2024-01-10T06:26:33;-5.00;99.90
52731;DHT22;38624;53.242;6.974;2024-01-10T06:28:58;-6.00;99.90
52731;DHT22;38624;53.242;6.974;2024-01-10T06:31:24;-3.90;99.90
52731;DHT22;38624;53.242;6.974;2024-01-10T06:33:50;-5.70;99.90
52731;DHT22;38624;53.242;6.974;2024-01-10T06:36:15;-5.70;99.90
52731;DHT22;38624;53.242;6.974;2024-01-10T06:38:41;-5.70;99.90
52731;DHT22;38624;53.242;6.974;2024-01-10T06:41:07;-5.30;99.90
52731;DHT22;38624;53.242;6.974;2024-01-10T06:43:33;-5.80;99.90
52731;DHT22;38624;53.242;6.974;2024-01-10T06:46:00;-5.90;99.90
52731;DHT22;38624;53.242;6.974;2024-01-10T06:48:25;-5.90;99.90
52731;DHT22;38624;53.242;6.974;2024-01-10T06:50:51;-5.80;99.90
52731;DHT22;38624;53.242;6.974;2024-01-10T06:53:18;-5.70;99.90
52731;DHT22;38624;53.242;6.974;2024-01-10T06:55:43;-5.70;99.90
52731;DHT22;38624;53.242;6.974;2024-01-10T06:58:09;-5.80;99.90
52731;DHT22;38624;53.242;6.974;2024-01-10T07:00:34;-5.80;99.90
52731;DHT22;38624;53.242;6.974;2024-01-10T07:03:03;-4.10;99.90
52731;DHT22;38624;53.242;6.974;2024-01-10T07:05:29;-5.70;99.90
52731;DHT22;38624;53.242;6.974;2024-01-10T07:07:57;-5.70;99.90
52731;DHT22;38624;53.242;6.974;2024-01-10T07:10:23;-5.70;99.90
52731;DHT22;38624;53.242;6.974;2024-01-10T07:12:53;-5.60;99.90
52731;DHT22;38624;53.242;6.974;2024-01-10T07:15:19;-5.60;99.90
52731;DHT22;38624;53.242;6.974;2024-01-10T07:17:44;-5.60;99.90
52731;DHT22;38624;53.242;6.974;2024-01-10T07:20:10;-5.70;99.90
52731;DHT22;38624;53.242;6.974;2024-01-10T07:22:37;-5.80;99.90
52731;DHT22;38624;53.242;6.974;2024-01-10T07:25:09;-5.80;99.90
52731;DHT22;38624;53.242;6.974;2024-01-10T07:27:35;-5.90;99.90
52731;DHT22;38624;53.242;6.974;2024-01-10T07:30:06;-6.00;99.90
52731;DHT22;38624;53.242;6.974;2024-01-10T07:32:37;-5.90;99.90
52731;DHT22;38624;53.242;6.974;2024-01-10T07:35:02;-5.70;99.90
52731;DHT22;38624;53.242;6.974;2024-01-10T07:37:28;-5.80;99.90
52731;DHT22;38624;53.242;6.974;2024-01-10T07:39:53;-5.90;99.90
52731;DHT22;38624;53.242;6.974;2024-01-10T07:42:19;-5.90;99.90
52731;DHT22;38624;53.242;6.974;2024-01-10T07:44:45;-6.00;99.90
52731;DHT22;38624;53.242;6.974;2024-01-10T07:47:10;-5.90;99.90
52731;DHT22;38624;53.242;6.974;2024-01-10T07:49:36;-5.90;99.90
52731;DHT22;38624;53.242;6.974;2024-01-10T07:52:02;-5.70;99.90
52731;DHT22;38624;53.242;6.974;2024-01-10T07:54:29;-5.70;99.90
52731;DHT22;38624;53.242;6.974;2024-01-10T07:56:57;-5.70;99.90
52731;DHT22;38624;53.242;6.974;2024-01-10T07:59:23;-5.60;99.90
52731;DHT22;38624;53.242;6.974;2024-01-10T08:01:56;-5.50;99.90
52731;DHT22;38624;53.242;6.974;2024-01-10T08:04:24;-5.60;99.90
52731;DHT22;38624;53.242;6.974;2024-01-10T08:06:50;-5.60;99.90
52731;DHT22;38624;53.242;6.974;2024-01-10T08:09:15;-5.40;99.90
52731;DHT22;38624;53.242;6.974;2024-01-10T08:11:41;-3.40;99.90
52731;DHT22;38624;53.242;6.974;2024-01-10T08:14:06;-5.00;99.90
52731;DHT22;38624;53.242;6.974;2024-01-10T08:16:32;-5.50;99.90
52731;DHT22;38624;53.242;6.974;2024-01-10T08:18:57;-5.60;99.90
52731;DHT22;38624;53.242;6.974;2024-01-10T08:21:24;-4.40;99.90
52731;DHT22;38624;53.242;6.974;2024-01-10T08:23:50;-5.50;99.90
52731;DHT22;38624;53.242;6.974;2024-01-10T08:26:16;-5.50;99.90
52731;DHT22;38624;53.242;6.974;2024-01-10T08:28:41;-5.50;99.90
52731;DHT22;38624;53.242;6.974;2024-01-10T08:31:07;-5.60;99.90
52731;DHT22;38624;53.242;6.974;2024-01-10T08:33:33;-5.60;99.90
52731;DHT22;38624;53.242;6.974;2024-01-10T08:35:59;-5.60;99.90
52731;DHT22;38624;53.242;6.974;2024-01-10T08:38:24;-5.50;99.90
52731;DHT22;38624;53.242;6.974;2024-01-10T08:40:50;-5.40;99.90
52731;DHT22;38624;53.242;6.974;2024-01-10T08:43:15;-5.40;99.90
52731;DHT22;38624;53.242;6.974;2024-01-10T08:45:43;-5.30;99.90
52731;DHT22;38624;53.242;6.974;2024-01-10T08:48:09;-5.40;99.90
52731;DHT22;38624;53.242;6.974;2024-01-10T08:50:37;-5.50;99.90
52731;DHT22;38624;53.242;6.974;2024-01-10T08:53:02;-4.00;99.90
52731;DHT22;38624;53.242;6.974;2024-01-10T08:55:31;-5.30;99.90
52731;DHT22;38624;53.242;6.974;2024-01-10T08:57:56;-3.90;99.90
52731;DHT22;38624;53.242;6.974;2024-01-10T09:00:22;-5.10;99.90
52731;DHT22;38624;53.242;6.974;2024-01-10T09:02:49;-5.00;99.90
52731;DHT22;38624;53.242;6.974;2024-01-10T09:05:15;-5.00;99.90
52731;DHT22;38624;53.242;6.974;2024-01-10T09:07:41;-5.10;99.90
52731;DHT22;38624;53.242;6.974;2024-01-10T09:10:07;-5.10;99.90
52731;DHT22;38624;53.242;6.974;2024-01-10T09:12:33;-4.40;99.90
52731;DHT22;38624;53.242;6.974;2024-01-10T09:15:00;-5.10;99.90
52731;DHT22;38624;53.242;6.974;2024-01-10T09:17:26;-4.90;99.90
52731;DHT22;38624;53.242;6.974;2024-01-10T09:19:53;-4.80;99.90
52731;DHT22;38624;53.242;6.974;2024-01-10T09:22:18;-4.90;99.90
52731;DHT22;38624;53.242;6.974;2024-01-10T09:24:44;-4.90;99.90
52731;DHT22;38624;53.242;6.974;2024-01-10T09:27:10;-4.80;99.90
52731;DHT22;38624;53.242;6.974;2024-01-10T09:29:36;-4.70;99.90
52731;DHT22;38624;53.242;6.974;2024-01-10T09:32:02;-4.50;99.90
52731;DHT22;38624;53.242;6.974;2024-01-10T09:34:27;-4.40;99.90
52731;DHT22;38624;53.242;6.974;2024-01-10T09:36:53;-4.50;99.90
52731;DHT22;38624;53.242;6.974;2024-01-10T09:39:19;-4.50;99.90
52731;DHT22;38624;53.242;6.974;2024-01-10T09:41:48;-4.50;99.90
52731;DHT22;38624;53.242;6.974;2024-01-10T09:44:15;-4.40;99.90
52731;DHT22;38624;53.242;6.974;2024-01-10T09:46:49;-3.30;99.90
52731;DHT22;38624;53.242;6.974;2024-01-10T09:49:16;-4.40;99.90
52731;DHT22;38624;53.242;6.974;2024-01-10T09:51:42;-4.40;99.90
52731;DHT22;38624;53.242;6.974;2024-01-10T09:54:08;-4.40;99.90
52731;DHT22;38624;53.242;6.974;2024-01-10T09:56:33;-4.40;99.90
52731;DHT22;38624;53.242;6.974;2024-01-10T09:59:00;-4.40;99.90
52731;DHT22;38624;53.242;6.974;2024-01-10T10:01:26;-4.40;99.90
52731;DHT22;38624;53.242;6.974;2024-01-10T10:03:52;-4.40;99.90
52731;DHT22;38624;53.242;6.974;2024-01-10T10:06:18;-4.40;99.90
52731;DHT22;38624;53.242;6.974;2024-01-10T10:08:44;-4.40;99.90
52731;DHT22;38624;53.242;6.974;2024-01-10T10:11:13;-4.30;99.90
52731;DHT22;38624;53.242;6.974;2024-01-10T10:13:39;-4.20;99.90
52731;DHT22;38624;53.242;6.974;2024-01-10T10:16:07;-4.20;99.90
52731;DHT22;38624;53.242;6.974;2024-01-10T10:18:35;-4.10;99.90
52731;DHT22;38624;53.242;6.974;2024-01-10T10:21:10;-4.10;99.90
52731;DHT22;38624;53.242;6.974;2024-01-10T10:23:37;-4.10;99.90
52731;DHT22;38624;53.242;6.974;2024-01-10T10:26:36;-4.10;99.90
52731;DHT22;38624;53.242;6.974;2024-01-10T10:28:55;-4.00;99.90
52731;DHT22;38624;53.242;6.974;2024-01-10T10:31:21;-3.90;99.90
52731;DHT22;38624;53.242;6.974;2024-01-10T10:33:48;-3.80;99.90
52731;DHT22;38624;53.242;6.974;2024-01-10T10:36:14;-3.90;99.90
52731;DHT22;38624;53.242;6.974;2024-01-10T10:38:40;-3.80;99.90
52731;DHT22;38624;53.242;6.974;2024-01-10T10:41:06;-3.60;99.90
52731;DHT22;38624;53.242;6.974;2024-01-10T10:43:38;-3.50;99.90
52731;DHT22;38624;53.242;6.974;2024-01-10T10:46:04;-3.50;99.90
52731;DHT22;38624;53.242;6.974;2024-01-10T10:48:34;-3.50;99.90
52731;DHT22;38624;53.242;6.974;2024-01-10T10:53:29;-3.50;99.90
52731;DHT22;38624;53.242;6.974;2024-01-10T10:55:56;-2.00;99.90
52731;DHT22;38624;53.242;6.974;2024-01-10T10:58:22;-3.40;99.90
52731;DHT22;38624;53.242;6.974;2024-01-10T11:00:47;-3.40;99.90
52731;DHT22;38624;53.242;6.974;2024-01-10T11:03:14;-1.30;99.90
52731;DHT22;38624;53.242;6.974;2024-01-10T11:05:41;-3.40;99.90
52731;DHT22;38624;53.242;6.974;2024-01-10T11:08:08;-3.30;99.90
52731;DHT22;38624;53.242;6.974;2024-01-10T11:10:34;-3.10;99.90
52731;DHT22;38624;53.242;6.974;2024-01-10T11:23:49;-3.10;99.90
52731;DHT22;38624;53.242;6.974;2024-01-10T11:26:15;-3.10;99.90
52731;DHT22;38624;53.242;6.974;2024-01-10T11:28:41;-3.00;99.90
52731;DHT22;38624;53.242;6.974;2024-01-10T11:31:07;-3.00;99.90
52731;DHT22;38624;53.242;6.974;2024-01-10T11:33:34;-3.00;99.90
52731;DHT22;38624;53.242;6.974;2024-01-10T11:41:11;-3.10;99.90
52731;DHT22;38624;53.242;6.974;2024-01-10T11:43:37;-2.90;99.90
52731;DHT22;38624;53.242;6.974;2024-01-10T11:46:03;-3.00;99.90
52731;DHT22;38624;53.242;6.974;2024-01-10T11:48:33;-3.00;99.90
52731;DHT22;38624;53.242;6.974;2024-01-10T11:50:59;-3.00;99.90
52731;DHT22;38624;53.242;6.974;2024-01-10T11:56:14;-2.90;99.90
52731;DHT22;38624;53.242;6.974;2024-01-10T11:58:53;-2.90;99.90
52731;DHT22;38624;53.242;6.974;2024-01-10T12:01:19;-2.90;99.90
52731;DHT22;38624;53.242;6.974;2024-01-10T12:03:46;-2.90;99.90
52731;DHT22;38624;53.242;6.974;2024-01-10T12:06:12;-1.90;99.90
52731;DHT22;38624;53.242;6.974;2024-01-10T12:08:39;-3.00;99.90
52731;DHT22;38624;53.242;6.974;2024-01-10T12:11:05;-2.90;99.90
52731;DHT22;38624;53.242;6.974;2024-01-10T12:13:30;-2.80;99.90
52731;DHT22;38624;53.242;6.974;2024-01-10T12:15:57;-2.80;99.90
52731;DHT22;38624;53.242;6.974;2024-01-10T12:18:23;-2.70;99.90
52731;DHT22;38624;53.242;6.974;2024-01-10T12:20:49;-0.80;99.90
52731;DHT22;38624;53.242;6.974;2024-01-10T12:23:15;-2.60;99.90
52731;DHT22;38624;53.242;6.974;2024-01-10T12:25:40;-2.60;99.90
52731;DHT22;38624;53.242;6.974;2024-01-10T12:28:06;-2.60;99.90
52731;DHT22;38624;53.242;6.974;2024-01-10T12:30:32;-2.60;99.90
52731;DHT22;38624;53.242;6.974;2024-01-10T12:33:01;-2.60;99.90
52731;DHT22;38624;53.242;6.974;2024-01-10T12:35:26;-2.60;99.90
52731;DHT22;38624;53.242;6.974;2024-01-10T12:37:55;-2.60;99.90
52731;DHT22;38624;53.242;6.974;2024-01-10T12:40:21;-2.60;99.90
52731;DHT22;38624;53.242;6.974;2024-01-10T12:42:47;-2.60;99.90
52731;DHT22;38624;53.242;6.974;2024-01-10T12:45:25;-2.50;99.90
52731;DHT22;38624;53.242;6.974;2024-01-10T12:47:52;-2.50;99.90
52731;DHT22;38624;53.242;6.974;2024-01-10T12:50:19;-2.40;99.90
52731;DHT22;38624;53.242;6.974;2024-01-10T12:52:44;-2.40;99.90
52731;DHT22;38624;53.242;6.974;2024-01-10T12:55:10;-2.30;99.90
52731;DHT22;38624;53.242;6.974;2024-01-10T12:57:36;-2.40;99.90
52731;DHT22;38624;53.242;6.974;2024-01-10T13:00:02;-2.40;99.90
52731;DHT22;38624;53.242;6.974;2024-01-10T13:02:35;-1.90;99.90
52731;DHT22;38624;53.242;6.974;2024-01-10T13:05:08;-2.40;99.90
52731;DHT22;38624;53.242;6.974;2024-01-10T13:07:37;-2.40;99.90
52731;DHT22;38624;53.242;6.974;2024-01-10T13:10:03;-2.50;99.90
52731;DHT22;38624;53.242;6.974;2024-01-10T13:12:28;-2.30;99.90
52731;DHT22;38624;53.242;6.974;2024-01-10T13:14:54;-1.30;99.90
52731;DHT22;38624;53.242;6.974;2024-01-10T13:17:19;-2.30;99.90
52731;DHT22;38624;53.242;6.974;2024-01-10T13:19:47;-1.00;99.90
52731;DHT22;38624;53.242;6.974;2024-01-10T13:22:14;-2.10;99.90
52731;DHT22;38624;53.242;6.974;2024-01-10T13:24:42;-2.10;99.90
52731;DHT22;38624;53.242;6.974;2024-01-10T13:27:08;-2.20;99.90
52731;DHT22;38624;53.242;6.974;2024-01-10T13:29:35;-1.80;99.90
52731;DHT22;38624;53.242;6.974;2024-01-10T13:32:05;-2.10;99.90
52731;DHT22;38624;53.242;6.974;2024-01-10T13:34:31;-2.20;99.90
52731;DHT22;38624;53.242;6.974;2024-01-10T13:36:57;-1.20;99.90
52731;DHT22;38624;53.242;6.974;2024-01-10T13:39:23;-2.40;99.90
52731;DHT22;38624;53.242;6.974;2024-01-10T13:41:49;-2.40;99.90
52731;DHT22;38624;53.242;6.974;2024-01-10T13:44:14;-0.80;99.90
52731;DHT22;38624;53.242;6.974;2024-01-10T13:46:40;-2.40;99.90
52731;DHT22;38624;53.242;6.974;2024-01-10T13:49:06;-2.30;99.90
52731;DHT22;38624;53.242;6.974;2024-01-10T13:51:32;-2.30;99.90
52731;DHT22;38624;53.242;6.974;2024-01-10T13:53:57;-2.40;99.90
52731;DHT22;38624;53.242;6.974;2024-01-10T13:56:23;-0.70;99.90
52731;DHT22;38624;53.242;6.974;2024-01-10T13:58:49;-2.30;99.90
52731;DHT22;38624;53.242;6.974;2024-01-10T14:01:14;-2.30;99.90
52731;DHT22;38624;53.242;6.974;2024-01-10T14:03:40;-0.60;99.90
52731;DHT22;38624;53.242;6.974;2024-01-10T14:06:06;-2.20;99.90
52731;DHT22;38624;53.242;6.974;2024-01-10T14:08:32;-2.00;99.90
52731;DHT22;38624;53.242;6.974;2024-01-10T14:10:57;-0.10;99.90
52731;DHT22;38624;53.242;6.974;2024-01-10T14:13:23;-1.50;99.90
52731;DHT22;38624;53.242;6.974;2024-01-10T14:15:49;-1.00;99.90
52731;DHT22;38624;53.242;6.974;2024-01-10T14:18:14;-1.10;99.90
52731;DHT22;38624;53.242;6.974;2024-01-10T14:20:40;-2.30;99.90
52731;DHT22;38624;53.242;6.974;2024-01-10T14:23:05;-2.30;99.90
52731;DHT22;38624;53.242;6.974;2024-01-10T14:25:31;-0.50;99.90
52731;DHT22;38624;53.242;6.974;2024-01-10T14:27:57;-2.40;99.90
52731;DHT22;38624;53.242;6.974;2024-01-10T14:30:24;-2.30;99.90
52731;DHT22;38624;53.242;6.974;2024-01-10T14:32:50;-2.20;99.90
52731;DHT22;38624;53.242;6.974;2024-01-10T14:35:16;-2.20;99.90
52731;DHT22;38624;53.242;6.974;2024-01-10T14:37:42;-2.20;99.90
52731;DHT22;38624;53.242;6.974;2024-01-10T14:40:07;-1.70;99.90
52731;DHT22;38624;53.242;6.974;2024-01-10T14:42:33;-2.30;99.90
52731;DHT22;38624;53.242;6.974;2024-01-10T14:44:59;-2.40;99.90
52731;DHT22;38624;53.242;6.974;2024-01-10T14:47:25;-2.40;99.90
52731;DHT22;38624;53.242;6.974;2024-01-10T14:49:50;-1.20;99.90
52731;DHT22;38624;53.242;6.974;2024-01-10T14:52:16;-2.50;99.90
52731;DHT22;38624;53.242;6.974;2024-01-10T14:54:41;-2.40;99.90
52731;DHT22;38624;53.242;6.974;2024-01-10T14:57:07;-2.50;99.90
52731;DHT22;38624;53.242;6.974;2024-01-10T14:59:33;-1.20;99.90
52731;DHT22;38624;53.242;6.974;2024-01-10T15:01:59;-2.60;99.90
52731;DHT22;38624;53.242;6.974;2024-01-10T15:04:24;-2.70;99.90
52731;DHT22;38624;53.242;6.974;2024-01-10T15:06:50;-2.80;99.90
52731;DHT22;38624;53.242;6.974;2024-01-10T15:09:15;-2.60;99.90
52731;DHT22;38624;53.242;6.974;2024-01-10T15:11:41;-2.70;99.90
52731;DHT22;38624;53.242;6.974;2024-01-10T15:14:07;-2.80;99.90
52731;DHT22;38624;53.242;6.974;2024-01-10T15:16:33;-2.90;99.90
52731;DHT22;38624;53.242;6.974;2024-01-10T15:18:59;-2.70;99.90
52731;DHT22;38624;53.242;6.974;2024-01-10T15:21:26;-1.10;99.90
52731;DHT22;38624;53.242;6.974;2024-01-10T15:23:51;-2.00;99.90
52731;DHT22;38624;53.242;6.974;2024-01-10T15:26:19;-2.30;99.90
52731;DHT22;38624;53.242;6.974;2024-01-10T15:28:45;-2.80;99.90
52731;DHT22;38624;53.242;6.974;2024-01-10T15:31:14;-1.10;99.90
52731;DHT22;38624;53.242;6.974;2024-01-10T15:33:41;-2.90;99.90
52731;DHT22;38624;53.242;6.974;2024-01-10T15:36:07;-3.00;99.90
52731;DHT22;38624;53.242;6.974;2024-01-10T15:38:35;-3.00;99.90
52731;DHT22;38624;53.242;6.974;2024-01-10T15:41:00;-1.40;99.90
52731;DHT22;38624;53.242;6.974;2024-01-10T15:43:27;-1.00;99.90